Time;durP1;ratioP1;P1;durP2;ratioP2;P2;SDS_P1;SDS_P2;PMS_P1;PMS_P2;Temp;Humidity;BMP_temperature;BMP_pressure;BME280_temperature;BME280_humidity;BME280_pressure;Samples;Min_cycle;Max_cycle;Signal;HPM_P1;HPM_P2
2021/11/22 00:00:47;;;;;;;5.93;3.13;;;;;;;;;;5072901;28;20312;-69
2021/11/22 00:03:14;;;;;;;6.47;3.17;;;;;;;;;;5073111;28;20278;-69
2021/11/22 00:05:40;;;;;;;7.80;3.63;;;;;;;;;;5072127;28;20227;-70
2021/11/22 00:08:07;;;;;;;7.67;3.50;;;;;;;;;;5073119;28;20197;-69
2021/11/22 00:10:34;;;;;;;4.77;3.23;;;;;;;;;;5072828;28;20245;-69
2021/11/22 00:13:00;;;;;;;5.83;3.43;;;;;;;;;;5072602;28;20686;-69
2021/11/22 00:15:27;;;;;;;7.80;3.97;;;;;;;;;;5071175;28;20216;-68
2021/11/22 00:17:53;;;;;;;5.63;3.50;;;;;;;;;;5072764;28;20292;-68
2021/11/22 00:20:21;;;;;;;6.70;3.50;;;;;;;;;;5072541;28;20229;-69
2021/11/22 00:22:48;;;;;;;6.37;3.90;;;;;;;;;;5072784;28;20201;-69
2021/11/22 00:25:15;;;;;;;7.33;3.73;;;;;;;;;;5073324;28;20201;-69
2021/11/22 00:27:42;;;;;;;5.47;3.60;;;;;;;;;;5091560;28;20307;-69
2021/11/22 00:30:09;;;;;;;10.00;4.73;;;;;;;;;;5092731;28;20244;-69
2021/11/22 00:32:35;;;;;;;8.47;4.10;;;;;;;;;;5092499;28;20661;-70
2021/11/22 00:35:06;;;;;;;7.53;4.17;;;;;;;;;;5091734;28;20259;-69
2021/11/22 00:37:35;;;;;;;8.43;4.43;;;;;;;;;;5091282;28;20220;-68
2021/11/22 00:40:06;;;;;;;8.57;4.83;;;;;;;;;;5092540;28;20315;-68
2021/11/22 00:42:32;;;;;;;9.03;4.50;;;;;;;;;;5092762;28;20291;-70
2021/11/22 00:44:59;;;;;;;8.70;4.97;;;;;;;;;;5092082;28;20215;-68
2021/11/22 00:47:25;;;;;;;7.60;4.60;;;;;;;;;;5085475;28;20224;-68
2021/11/22 00:49:52;;;;;;;9.57;4.47;;;;;;;;;;5072134;28;20240;-70
2021/11/22 00:52:18;;;;;;;7.23;4.13;;;;;;;;;;5072318;28;20674;-69
2021/11/22 00:54:44;;;;;;;12.27;5.30;;;;;;;;;;5072402;28;20232;-70
2021/11/22 00:57:11;;;;;;;7.23;4.70;;;;;;;;;;5070351;28;20221;-68
2021/11/22 00:59:38;;;;;;;10.33;5.13;;;;;;;;;;5071956;28;20785;-69
2021/11/22 01:35:04;;;;;;;14.83;6.33;;;;;;;;;;5088418;28;20362;-68
2021/11/22 01:37:31;;;;;;;14.20;6.50;;;;;;;;;;5089122;28;20319;-68
2021/11/22 01:39:57;;;;;;;10.80;5.83;;;;;;;;;;5089212;28;20210;-68
2021/11/22 01:42:23;;;;;;;11.67;6.20;;;;;;;;;;5089228;28;20215;-68
2021/11/22 01:44:50;;;;;;;9.93;6.13;;;;;;;;;;5088417;28;20284;-68
2021/11/22 01:47:16;;;;;;;15.30;6.30;;;;;;;;;;5088571;28;20382;-67
2021/11/22 01:49:43;;;;;;;12.20;5.87;;;;;;;;;;5088752;28;20636;-68
2021/11/22 01:52:10;;;;;;;11.83;6.23;;;;;;;;;;5089051;28;20204;-70
2021/11/22 01:54:37;;;;;;;9.93;5.93;;;;;;;;;;5088634;28;20228;-69
2021/11/22 01:57:03;;;;;;;11.83;6.60;;;;;;;;;;5088108;28;20220;-70
2021/11/22 01:59:31;;;;;;;10.23;5.43;;;;;;;;;;5089108;28;20616;-69
2021/11/22 02:01:58;;;;;;;11.70;5.63;;;;;;;;;;5088765;28;20201;-69
2021/11/22 02:04:24;;;;;;;13.93;7.27;;;;;;;;;;5088585;28;20269;-69
2021/11/22 02:06:51;;;;;;;14.53;5.73;;;;;;;;;;5087786;28;20315;-69
2021/11/22 02:09:17;;;;;;;11.10;5.93;;;;;;;;;;5088635;28;20208;-70
2021/11/22 02:11:44;;;;;;;9.20;5.93;;;;;;;;;;5088573;28;20215;-70
2021/11/22 02:14:10;;;;;;;10.20;5.77;;;;;;;;;;5088353;28;20315;-69
2021/11/22 02:16:36;;;;;;;13.27;6.67;;;;;;;;;;5087437;28;20319;-70
2021/11/22 02:19:04;;;;;;;9.50;5.23;;;;;;;;;;5088262;28;20209;-70
2021/11/22 02:21:30;;;;;;;12.50;5.80;;;;;;;;;;5088482;28;20232;-70
2021/11/22 02:23:58;;;;;;;9.73;5.43;;;;;;;;;;5088191;28;20240;-70
2021/11/22 02:26:24;;;;;;;9.63;5.53;;;;;;;;;;5098439;28;20223;-70
2021/11/22 02:28:51;;;;;;;12.67;6.23;;;;;;;;;;5107352;28;20287;-69
2021/11/22 02:31:17;;;;;;;10.73;5.60;;;;;;;;;;5108285;28;20211;-70
2021/11/22 02:33:43;;;;;;;11.77;5.87;;;;;;;;;;5117640;28;20231;-69
2021/11/22 02:36:10;;;;;;;12.30;5.70;;;;;;;;;;5128310;27;20224;-69
2021/11/22 02:38:38;;;;;;;11.13;5.27;;;;;;;;;;5129058;27;20203;-69
2021/11/22 02:41:06;;;;;;;10.30;5.37;;;;;;;;;;5128891;27;20792;-69
2021/11/22 02:43:34;;;;;;;11.13;5.57;;;;;;;;;;5129003;27;20207;-69
2021/11/22 02:46:01;;;;;;;13.23;6.13;;;;;;;;;;5116600;27;20321;-69
2021/11/22 02:48:27;;;;;;;9.37;5.23;;;;;;;;;;5099398;28;20204;-68
2021/11/22 02:50:54;;;;;;;9.90;5.67;;;;;;;;;;5094907;28;20215;-68
2021/11/22 02:53:22;;;;;;;10.93;4.67;;;;;;;;;;5094704;28;20224;-68
2021/11/22 02:55:50;;;;;;;8.93;5.33;;;;;;;;;;5093856;28;20228;-68
2021/11/22 02:58:17;;;;;;;12.50;5.90;;;;;;;;;;5094234;28;20291;-68
2021/11/22 03:00:43;;;;;;;13.53;5.47;;;;;;;;;;5093987;28;20205;-68
2021/11/22 03:03:10;;;;;;;8.87;5.43;;;;;;;;;;5105258;28;20197;-69
2021/11/22 03:05:36;;;;;;;16.33;6.00;;;;;;;;;;5093691;28;20863;-69
2021/11/22 03:08:03;;;;;;;9.37;5.33;;;;;;;;;;5094466;28;20200;-68
2021/11/22 03:10:29;;;;;;;13.57;5.50;;;;;;;;;;5093124;28;20350;-68
2021/11/22 03:12:59;;;;;;;10.87;5.93;;;;;;;;;;5094351;28;20247;-68
2021/11/22 03:15:27;;;;;;;10.57;5.93;;;;;;;;;;5092237;28;20799;-68
2021/11/22 03:17:53;;;;;;;13.93;5.80;;;;;;;;;;5094031;28;20583;-68
2021/11/22 03:20:20;;;;;;;13.90;6.23;;;;;;;;;;5094136;28;20281;-68
2021/11/22 03:22:48;;;;;;;12.63;5.23;;;;;;;;;;5093150;28;20239;-68
2021/11/22 03:25:16;;;;;;;12.27;5.93;;;;;;;;;;5093123;28;20284;-68
2021/11/22 03:27:43;;;;;;;10.17;5.90;;;;;;;;;;5093545;28;20220;-68
2021/11/22 03:30:11;;;;;;;10.67;6.03;;;;;;;;;;5092478;28;20207;-68
2021/11/22 03:32:37;;;;;;;9.87;5.20;;;;;;;;;;5094039;28;20235;-67
2021/11/22 03:35:05;;;;;;;11.43;5.90;;;;;;;;;;5097020;28;20251;-69
2021/11/22 03:37:31;;;;;;;9.63;5.30;;;;;;;;;;5098786;28;20322;-68
2021/11/22 03:39:59;;;;;;;9.90;5.40;;;;;;;;;;5100808;28;20208;-68
2021/11/22 03:42:29;;;;;;;13.37;5.57;;;;;;;;;;5093498;28;20533;-68
2021/11/22 03:44:55;;;;;;;11.77;5.60;;;;;;;;;;5092913;28;20745;-68
2021/11/22 03:47:22;;;;;;;13.03;6.20;;;;;;;;;;5093334;28;20414;-69
2021/11/22 03:49:48;;;;;;;10.13;5.80;;;;;;;;;;5093472;28;20210;-68
2021/11/22 03:52:14;;;;;;;10.07;5.87;;;;;;;;;;5093381;28;20219;-68
2021/11/22 03:54:41;;;;;;;11.40;5.57;;;;;;;;;;5091829;28;20634;-68
2021/11/22 03:57:07;;;;;;;9.03;5.50;;;;;;;;;;5091340;28;20807;-69
2021/11/22 03:59:35;;;;;;;11.20;5.73;;;;;;;;;;5091781;28;20672;-69
2021/11/22 04:02:02;;;;;;;9.40;4.87;;;;;;;;;;5093205;28;20206;-69
2021/11/22 04:04:29;;;;;;;13.10;6.07;;;;;;;;;;5093094;28;20619;-69
2021/11/22 04:06:55;;;;;;;9.27;4.73;;;;;;;;;;5092366;28;20304;-69
2021/11/22 04:09:22;;;;;;;11.10;5.27;;;;;;;;;;5093008;28;20214;-69
2021/11/22 04:11:48;;;;;;;13.27;6.03;;;;;;;;;;5093195;28;20211;-69
2021/11/22 04:14:15;;;;;;;11.53;6.20;;;;;;;;;;5091926;28;20654;-69
2021/11/22 04:16:42;;;;;;;10.00;5.43;;;;;;;;;;5092277;28;20312;-71
2021/11/22 04:19:09;;;;;;;10.90;5.50;;;;;;;;;;5089428;28;20207;-68
2021/11/22 04:21:35;;;;;;;12.70;5.90;;;;;;;;;;5093018;28;20205;-68
2021/11/22 04:24:02;;;;;;;10.87;5.93;;;;;;;;;;5092595;28;20253;-68
2021/11/22 04:26:28;;;;;;;10.70;5.27;;;;;;;;;;5091909;28;20307;-68
2021/11/22 04:28:55;;;;;;;9.83;5.13;;;;;;;;;;5092426;28;20675;-67
2021/11/22 04:31:21;;;;;;;10.63;5.57;;;;;;;;;;5092539;28;20573;-67
2021/11/22 04:33:48;;;;;;;10.90;5.87;;;;;;;;;;5092443;28;20861;-67
2021/11/22 04:36:14;;;;;;;16.43;6.00;;;;;;;;;;5091931;28;20220;-70
2021/11/22 04:38:41;;;;;;;12.00;6.30;;;;;;;;;;5091520;28;20307;-68
2021/11/22 04:41:07;;;;;;;12.00;6.13;;;;;;;;;;5092506;28;20244;-68
2021/11/22 04:43:34;;;;;;;9.40;5.10;;;;;;;;;;5092681;28;20224;-68
2021/11/22 04:46:00;;;;;;;10.83;6.23;;;;;;;;;;5091685;28;20307;-67
2021/11/22 04:48:27;;;;;;;12.50;6.53;;;;;;;;;;5092202;28;20200;-67
2021/11/22 04:50:54;;;;;;;13.30;5.93;;;;;;;;;;5092264;28;20232;-67
2021/11/22 04:53:20;;;;;;;10.47;5.30;;;;;;;;;;5092195;28;20236;-67
2021/11/22 04:55:47;;;;;;;8.93;5.67;;;;;;;;;;5091347;28;20258;-67
2021/11/22 04:58:13;;;;;;;9.00;4.87;;;;;;;;;;5092288;28;20638;-67
2021/11/22 05:00:40;;;;;;;9.23;5.13;;;;;;;;;;5090852;28;20254;-67
2021/11/22 05:03:07;;;;;;;11.20;5.80;;;;;;;;;;5092234;28;20200;-67
2021/11/22 05:05:34;;;;;;;10.67;5.30;;;;;;;;;;5091278;28;20204;-70
2021/11/22 05:08:07;;;;;;;8.97;5.00;;;;;;;;;;5092200;28;20209;-68
2021/11/22 05:10:35;;;;;;;14.17;6.00;;;;;;;;;;5092258;28;20236;-68
2021/11/22 05:13:04;;;;;;;13.57;6.23;;;;;;;;;;5092085;28;20654;-67
2021/11/22 05:15:31;;;;;;;12.67;5.23;;;;;;;;;;5091151;28;20228;-68
2021/11/22 05:17:57;;;;;;;10.67;5.60;;;;;;;;;;5090756;28;20283;-67
2021/11/22 05:20:24;;;;;;;11.67;6.37;;;;;;;;;;5091578;28;20255;-68
2021/11/22 05:22:50;;;;;;;10.70;5.70;;;;;;;;;;5091494;28;20618;-68
2021/11/22 05:25:17;;;;;;;9.60;5.27;;;;;;;;;;5092588;28;20514;-70
2021/11/22 05:27:43;;;;;;;14.83;5.97;;;;;;;;;;5112288;28;20227;-68
2021/11/22 05:30:10;;;;;;;11.63;6.00;;;;;;;;;;5110617;28;20690;-68
2021/11/22 05:32:37;;;;;;;15.70;6.30;;;;;;;;;;5089492;28;20287;-67
2021/11/22 05:35:03;;;;;;;12.77;5.87;;;;;;;;;;5090397;28;20229;-67
2021/11/22 05:37:31;;;;;;;12.33;5.40;;;;;;;;;;5071279;28;20225;-67
2021/11/22 05:39:57;;;;;;;12.13;6.00;;;;;;;;;;5071554;28;20293;-67
2021/11/22 05:42:24;;;;;;;12.07;6.03;;;;;;;;;;5071466;28;20200;-67
2021/11/22 05:44:50;;;;;;;15.27;6.13;;;;;;;;;;5073436;28;20279;-67
2021/11/22 05:47:18;;;;;;;12.17;6.17;;;;;;;;;;5080911;28;20332;-68
2021/11/22 05:49:45;;;;;;;10.90;5.37;;;;;;;;;;5080569;28;20196;-66
2021/11/22 05:52:12;;;;;;;13.07;6.33;;;;;;;;;;5086818;28;20196;-68
2021/11/22 05:54:47;;;;;;;12.80;6.63;;;;;;;;;;5091144;28;20250;-68
2021/11/22 05:57:14;;;;;;;13.67;6.57;;;;;;;;;;5083115;28;20224;-68
2021/11/22 05:59:41;;;;;;;16.90;6.00;;;;;;;;;;5070450;28;20288;-67
2021/11/22 06:02:07;;;;;;;11.90;5.80;;;;;;;;;;5084667;28;20661;-70
2021/11/22 06:04:34;;;;;;;11.97;6.00;;;;;;;;;;5091567;28;20204;-67
2021/11/22 06:07:00;;;;;;;11.43;5.50;;;;;;;;;;5090725;28;20228;-70
2021/11/22 06:09:27;;;;;;;11.73;5.80;;;;;;;;;;5085435;28;20209;-67
2021/11/22 06:11:54;;;;;;;16.43;6.57;;;;;;;;;;5091060;28;20219;-67
2021/11/22 06:14:20;;;;;;;11.53;5.47;;;;;;;;;;5090949;28;20311;-66
2021/11/22 06:16:46;;;;;;;10.60;5.40;;;;;;;;;;5090408;28;20812;-67
2021/11/22 06:19:13;;;;;;;11.13;6.13;;;;;;;;;;5086509;28;20194;-67
2021/11/22 06:21:39;;;;;;;9.90;5.23;;;;;;;;;;5080132;28;20200;-69
2021/11/22 06:24:06;;;;;;;11.07;5.30;;;;;;;;;;5086319;28;20201;-66
2021/11/22 06:26:33;;;;;;;14.27;6.10;;;;;;;;;;5101611;28;20244;-68
2021/11/22 06:28:59;;;;;;;11.03;5.13;;;;;;;;;;5074303;28;20684;-71
2021/11/22 06:31:26;;;;;;;11.30;5.37;;;;;;;;;;5074260;28;20300;-70
2021/11/22 06:33:52;;;;;;;15.30;6.43;;;;;;;;;;5074524;28;20700;-69
2021/11/22 06:36:19;;;;;;;11.40;5.40;;;;;;;;;;5072675;28;20231;-69
2021/11/22 06:38:45;;;;;;;11.77;5.17;;;;;;;;;;5074411;28;20201;-70
2021/11/22 06:41:11;;;;;;;10.90;4.80;;;;;;;;;;5074435;28;20286;-69
2021/11/22 06:43:38;;;;;;;11.13;5.13;;;;;;;;;;5074236;28;20205;-69
2021/11/22 06:46:04;;;;;;;12.93;5.87;;;;;;;;;;5073650;28;20699;-68
2021/11/22 06:48:31;;;;;;;9.40;5.03;;;;;;;;;;5090224;28;20621;-70
2021/11/22 06:50:57;;;;;;;8.93;4.87;;;;;;;;;;5094551;28;20291;-68
2021/11/22 06:53:24;;;;;;;10.33;5.33;;;;;;;;;;5094792;28;20208;-70
2021/11/22 06:55:51;;;;;;;9.37;4.40;;;;;;;;;;5093855;28;20232;-70
2021/11/22 06:58:18;;;;;;;9.20;5.23;;;;;;;;;;5095248;28;20661;-69
2021/11/22 07:00:45;;;;;;;12.47;5.50;;;;;;;;;;5094440;28;20803;-68
2021/11/22 07:03:12;;;;;;;10.13;4.87;;;;;;;;;;5092976;28;20223;-68
2021/11/22 07:05:38;;;;;;;11.40;4.77;;;;;;;;;;5093407;28;20216;-68
2021/11/22 07:08:07;;;;;;;11.27;5.20;;;;;;;;;;5093997;28;20747;-68
2021/11/22 07:10:35;;;;;;;10.63;5.37;;;;;;;;;;5093852;28;20207;-68
2021/11/22 07:13:01;;;;;;;10.23;5.10;;;;;;;;;;5094289;28;20299;-67
2021/11/22 07:15:35;;;;;;;11.27;4.80;;;;;;;;;;5093739;28;20236;-70
2021/11/22 07:18:02;;;;;;;10.37;5.27;;;;;;;;;;5094273;28;20709;-69
2021/11/22 07:20:29;;;;;;;8.93;5.00;;;;;;;;;;5094215;28;20280;-70
2021/11/22 07:22:55;;;;;;;10.93;5.03;;;;;;;;;;5093749;28;20243;-69
2021/11/22 07:25:21;;;;;;;14.63;5.83;;;;;;;;;;5095246;28;20248;-70
2021/11/22 07:27:48;;;;;;;11.93;5.33;;;;;;;;;;5114094;28;20775;-70
2021/11/22 07:30:21;;;;;;;8.63;5.03;;;;;;;;;;5114719;28;20301;-70
2021/11/22 07:32:54;;;;;;;9.37;4.37;;;;;;;;;;5114342;28;20195;-69
2021/11/22 07:35:23;;;;;;;12.27;5.90;;;;;;;;;;5113393;28;20227;-70
2021/11/22 07:37:50;;;;;;;10.10;4.20;;;;;;;;;;5114107;28;20246;-69
2021/11/22 07:40:21;;;;;;;10.60;4.33;;;;;;;;;;5114171;28;20287;-68
2021/11/22 07:42:48;;;;;;;11.37;4.83;;;;;;;;;;5113939;28;20250;-67
2021/11/22 07:45:15;;;;;;;9.13;5.23;;;;;;;;;;5113237;28;20208;-68
2021/11/22 07:47:41;;;;;;;10.57;5.20;;;;;;;;;;5104440;28;20222;-68
2021/11/22 07:50:08;;;;;;;8.97;4.47;;;;;;;;;;5093215;28;20244;-67
2021/11/22 07:52:34;;;;;;;8.27;4.33;;;;;;;;;;5093600;28;20204;-68
2021/11/22 07:55:00;;;;;;;11.53;5.10;;;;;;;;;;5085274;28;20300;-71
2021/11/22 07:57:28;;;;;;;11.43;4.70;;;;;;;;;;5104906;28;20304;-69
2021/11/22 07:59:55;;;;;;;9.07;5.47;;;;;;;;;;5092519;28;20283;-69
2021/11/22 08:02:21;;;;;;;7.60;4.17;;;;;;;;;;5088120;28;20287;-68
2021/11/22 08:04:48;;;;;;;7.43;4.40;;;;;;;;;;5086507;28;20208;-66
2021/11/22 08:07:19;;;;;;;13.53;5.00;;;;;;;;;;5086495;28;20248;-66
2021/11/22 08:10:01;;;;;;;10.93;5.40;;;;;;;;;;5087508;28;20281;-67
2021/11/22 08:12:28;;;;;;;9.30;4.57;;;;;;;;;;5087399;28;20212;-66
2021/11/22 08:15:09;;;;;;;9.27;4.80;;;;;;;;;;5085913;28;20223;-66
2021/11/22 08:17:39;;;;;;;11.50;5.10;;;;;;;;;;5087061;28;20223;-66
2021/11/22 08:20:07;;;;;;;10.03;5.13;;;;;;;;;;5086331;28;20219;-67
2021/11/22 08:22:33;;;;;;;13.63;5.43;;;;;;;;;;5086702;28;20295;-65
2021/11/22 08:25:00;;;;;;;8.83;5.20;;;;;;;;;;5086204;28;20216;-66
2021/11/22 08:27:28;;;;;;;9.90;4.77;;;;;;;;;;5085801;28;20726;-68
2021/11/22 08:30:00;;;;;;;11.43;5.23;;;;;;;;;;5085894;28;20865;-67
2021/11/22 08:32:26;;;;;;;10.80;4.97;;;;;;;;;;5085593;28;20215;-66
2021/11/22 08:34:53;;;;;;;10.27;4.10;;;;;;;;;;5083666;28;20230;-67
2021/11/22 08:37:19;;;;;;;7.80;4.33;;;;;;;;;;5085377;28;20228;-67
2021/11/22 08:39:46;;;;;;;5.77;3.70;;;;;;;;;;5086698;28;20315;-67
2021/11/22 08:42:12;;;;;;;9.33;4.57;;;;;;;;;;5085418;28;20675;-67
2021/11/22 08:44:39;;;;;;;8.57;4.50;;;;;;;;;;5084991;28;20299;-66
2021/11/22 08:47:05;;;;;;;9.57;4.20;;;;;;;;;;5085474;28;20390;-68
2021/11/22 08:49:32;;;;;;;7.43;4.03;;;;;;;;;;5085530;28;20288;-67
2021/11/22 08:51:59;;;;;;;7.40;4.40;;;;;;;;;;5084921;28;20209;-66
2021/11/22 08:54:26;;;;;;;10.27;4.40;;;;;;;;;;5086034;28;20230;-67
2021/11/22 08:56:52;;;;;;;9.07;4.73;;;;;;;;;;5084356;28;20249;-69
2021/11/22 08:59:19;;;;;;;9.27;4.70;;;;;;;;;;5084835;28;20335;-68
2021/11/22 09:01:45;;;;;;;9.00;4.60;;;;;;;;;;5085563;28;20299;-67
2021/11/22 09:04:13;;;;;;;8.43;4.30;;;;;;;;;;5084070;28;20204;-67
2021/11/22 09:06:39;;;;;;;6.80;4.00;;;;;;;;;;5084938;28;20323;-67
2021/11/22 09:09:06;;;;;;;8.03;4.40;;;;;;;;;;5085281;28;20209;-67
2021/11/22 09:11:34;;;;;;;8.27;4.10;;;;;;;;;;5084833;28;20213;-67
2021/11/22 09:14:00;;;;;;;9.67;4.67;;;;;;;;;;5084143;28;20702;-67
2021/11/22 09:16:27;;;;;;;8.17;4.93;;;;;;;;;;5083790;28;20689;-69
2021/11/22 09:18:58;;;;;;;10.67;4.10;;;;;;;;;;5084045;28;20637;-67
2021/11/22 09:21:25;;;;;;;7.73;3.60;;;;;;;;;;5084817;28;20662;-68
2021/11/22 09:23:53;;;;;;;8.00;4.07;;;;;;;;;;5085001;28;20691;-67
2021/11/22 09:26:20;;;;;;;7.93;4.80;;;;;;;;;;5094113;28;20263;-67
2021/11/22 09:28:47;;;;;;;7.93;4.23;;;;;;;;;;5085592;28;20218;-69
2021/11/22 09:31:14;;;;;;;6.50;3.33;;;;;;;;;;5085321;28;20204;-67
2021/11/22 09:33:41;;;;;;;6.27;3.43;;;;;;;;;;5084434;28;20843;-68
2021/11/22 09:36:07;;;;;;;8.20;3.87;;;;;;;;;;5084059;28;20740;-68
2021/11/22 09:38:34;;;;;;;7.80;3.47;;;;;;;;;;5084459;28;20300;-67
2021/11/22 09:41:00;;;;;;;7.87;3.50;;;;;;;;;;5084657;28;20209;-68
2021/11/22 09:43:28;;;;;;;5.37;3.43;;;;;;;;;;5085138;28;20731;-68
2021/11/22 09:45:54;;;;;;;6.07;3.30;;;;;;;;;;5083866;28;20307;-68
2021/11/22 09:48:21;;;;;;;6.60;3.87;;;;;;;;;;5080556;28;20618;-68
2021/11/22 09:50:47;;;;;;;6.13;3.60;;;;;;;;;;5085501;28;20894;-67
2021/11/22 09:53:14;;;;;;;8.90;4.37;;;;;;;;;;5085059;28;20200;-67
2021/11/22 09:55:40;;;;;;;6.63;3.67;;;;;;;;;;5086152;28;20986;-67
2021/11/22 09:58:07;;;;;;;7.13;3.70;;;;;;;;;;5089124;28;20635;-68
2021/11/22 10:00:34;;;;;;;6.50;3.67;;;;;;;;;;5088519;28;20196;-68
2021/11/22 10:03:01;;;;;;;10.73;3.93;;;;;;;;;;5089099;28;20971;-68
2021/11/22 10:05:31;;;;;;;5.33;3.37;;;;;;;;;;5088077;28;20290;-68
2021/11/22 10:08:05;;;;;;;7.97;3.30;;;;;;;;;;5088360;28;20660;-68
2021/11/22 10:10:43;;;;;;;6.63;3.60;;;;;;;;;;5088591;28;20336;-67
2021/11/22 10:13:25;;;;;;;6.20;3.30;;;;;;;;;;5088524;28;20436;-68
2021/11/22 10:15:52;;;;;;;9.67;3.73;;;;;;;;;;5087224;28;20248;-68
2021/11/22 10:18:23;;;;;;;4.73;2.90;;;;;;;;;;5088421;28;20197;-68
2021/11/22 10:20:51;;;;;;;8.83;3.73;;;;;;;;;;5088288;28;20291;-68
2021/11/22 10:23:22;;;;;;;7.33;3.43;;;;;;;;;;5088374;28;20207;-66
2021/11/22 10:25:50;;;;;;;6.43;4.03;;;;;;;;;;5092428;28;20223;-67
2021/11/22 10:28:19;;;;;;;6.03;3.37;;;;;;;;;;5109288;28;20293;-69
2021/11/22 10:30:47;;;;;;;8.80;3.70;;;;;;;;;;5108409;28;20696;-66
2021/11/22 10:33:16;;;;;;;7.20;3.90;;;;;;;;;;5108122;28;20612;-67
2021/11/22 10:35:48;;;;;;;4.53;3.20;;;;;;;;;;5107401;28;20610;-67
2021/11/22 10:38:16;;;;;;;5.53;3.13;;;;;;;;;;5108792;28;20206;-65
2021/11/22 10:40:45;;;;;;;6.23;3.67;;;;;;;;;;5107877;28;20577;-66
2021/11/22 10:43:13;;;;;;;5.43;3.27;;;;;;;;;;5107680;28;20706;-66
2021/11/22 10:45:41;;;;;;;10.07;3.53;;;;;;;;;;5108219;27;20302;-67
2021/11/22 10:48:18;;;;;;;7.93;3.47;;;;;;;;;;5093906;28;20245;-68
2021/11/22 10:50:53;;;;;;;8.97;3.50;;;;;;;;;;5087713;28;20219;-67
2021/11/22 10:53:46;;;;;;;6.43;3.70;;;;;;;;;;5088055;28;20741;-67
2021/11/22 10:56:14;;;;;;;6.00;3.07;;;;;;;;;;5085591;28;20293;-67
2021/11/22 10:58:49;;;;;;;4.83;3.00;;;;;;;;;;5089555;28;20288;-67
2021/11/22 11:01:17;;;;;;;6.23;2.93;;;;;;;;;;5089002;28;20196;-66
2021/11/22 11:03:48;;;;;;;6.53;3.37;;;;;;;;;;5087769;28;20204;-68
2021/11/22 11:06:15;;;;;;;9.27;3.47;;;;;;;;;;5086694;28;20792;-66
2021/11/22 11:08:42;;;;;;;5.63;2.70;;;;;;;;;;5087344;28;20295;-67
2021/11/22 11:11:12;;;;;;;5.57;3.37;;;;;;;;;;5085942;28;20289;-66
2021/11/22 11:13:49;;;;;;;7.20;3.83;;;;;;;;;;5087653;28;20691;-68
2021/11/22 11:16:17;;;;;;;6.57;3.07;;;;;;;;;;5086187;28;20319;-67
2021/11/22 11:18:57;;;;;;;6.13;3.50;;;;;;;;;;5088056;28;20197;-64
2021/11/22 11:21:28;;;;;;;5.20;3.33;;;;;;;;;;5088495;28;20812;-67
2021/11/22 11:23:56;;;;;;;5.30;2.80;;;;;;;;;;5087276;28;20201;-66
2021/11/22 11:26:24;;;;;;;6.07;3.70;;;;;;;;;;5097825;28;20262;-70
2021/11/22 11:28:50;;;;;;;5.63;3.83;;;;;;;;;;5108050;28;20224;-69
2021/11/22 11:31:17;;;;;;;6.90;3.00;;;;;;;;;;5107579;28;20250;-69
2021/11/22 11:33:46;;;;;;;5.47;3.17;;;;;;;;;;5106897;28;20242;-70
2021/11/22 11:36:19;;;;;;;5.63;3.30;;;;;;;;;;5106931;28;20259;-71
2021/11/22 11:38:55;;;;;;;8.17;2.90;;;;;;;;;;5107628;28;20230;-70
2021/11/22 11:41:36;;;;;;;5.80;3.20;;;;;;;;;;5086230;28;20196;-70
2021/11/22 11:44:15;;;;;;;7.40;3.70;;;;;;;;;;5066813;28;20259;-70
2021/11/22 11:47:14;;;;;;;7.17;3.00;;;;;;;;;;5068260;28;20764;-68
2021/11/22 11:49:41;;;;;;;7.60;3.60;;;;;;;;;;5086293;28;20750;-69
2021/11/22 11:52:21;;;;;;;6.03;2.97;;;;;;;;;;5092007;28;20193;-68
2021/11/22 11:54:47;;;;;;;4.90;2.83;;;;;;;;;;5089261;28;20255;-69
2021/11/22 11:57:16;;;;;;;8.37;3.23;;;;;;;;;;5087158;28;20323;-68
2021/11/22 11:59:45;;;;;;;5.00;2.90;;;;;;;;;;5086472;28;20231;-71
2021/11/22 12:02:12;;;;;;;5.97;2.70;;;;;;;;;;5086109;28;20273;-73
2021/11/22 12:04:46;;;;;;;4.63;3.17;;;;;;;;;;5088022;28;20694;-71
2021/11/22 12:07:28;;;;;;;6.00;2.93;;;;;;;;;;5091322;28;20311;-70
2021/11/22 12:10:09;;;;;;;5.67;3.40;;;;;;;;;;5090059;28;20200;-68
2021/11/22 12:12:50;;;;;;;4.87;2.77;;;;;;;;;;5092836;28;20251;-70
2021/11/22 12:15:22;;;;;;;6.27;3.40;;;;;;;;;;5092672;28;20204;-69
2021/11/22 12:18:10;;;;;;;8.40;2.87;;;;;;;;;;5092210;28;20205;-72
2021/11/22 12:20:38;;;;;;;7.53;3.23;;;;;;;;;;5092917;28;20283;-69
2021/11/22 12:23:06;;;;;;;7.53;4.00;;;;;;;;;;5093809;28;20201;-71
2021/11/22 12:25:39;;;;;;;5.57;3.40;;;;;;;;;;5097094;28;20616;-71
2021/11/22 12:28:15;;;;;;;5.93;3.70;;;;;;;;;;5112373;28;20199;-68
2021/11/22 12:30:55;;;;;;;5.83;3.60;;;;;;;;;;5112978;28;20210;-67
2021/11/22 12:33:24;;;;;;;9.10;4.00;;;;;;;;;;5085901;28;20224;-64
2021/11/22 12:35:50;;;;;;;6.70;3.83;;;;;;;;;;5086274;28;20847;-64
2021/11/22 12:38:21;;;;;;;8.07;4.13;;;;;;;;;;5086965;28;20204;-64
2021/11/22 12:41:05;;;;;;;7.97;4.30;;;;;;;;;;5087343;28;20204;-64
2021/11/22 12:43:45;;;;;;;6.90;4.20;;;;;;;;;;5086887;28;20628;-66
2021/11/22 12:46:13;;;;;;;5.23;3.53;;;;;;;;;;5086075;28;20314;-68
2021/11/22 12:48:41;;;;;;;8.17;3.73;;;;;;;;;;5069679;28;20209;-66
2021/11/22 12:51:12;;;;;;;4.93;3.13;;;;;;;;;;5066626;28;20296;-66
2021/11/22 12:53:58;;;;;;;4.50;3.00;;;;;;;;;;5066117;28;20311;-66
2021/11/22 12:56:26;;;;;;;3.70;2.80;;;;;;;;;;5064767;28;20283;-67
2021/11/22 12:59:07;;;;;;;7.37;2.93;;;;;;;;;;5066018;28;20284;-67
2021/11/22 13:01:34;;;;;;;3.60;2.70;;;;;;;;;;5073565;28;20287;-66
2021/11/22 13:04:03;;;;;;;4.00;2.53;;;;;;;;;;5086172;28;20228;-67
2021/11/22 13:06:34;;;;;;;4.67;2.77;;;;;;;;;;5086044;28;20255;-68
2021/11/22 13:09:01;;;;;;;4.37;2.60;;;;;;;;;;5086389;28;20987;-67
2021/11/22 13:11:53;;;;;;;8.00;2.70;;;;;;;;;;5087171;28;20227;-68
2021/11/22 13:14:25;;;;;;;2.83;2.40;;;;;;;;;;5089556;28;20663;-67
2021/11/22 13:16:56;;;;;;;4.10;2.60;;;;;;;;;;5090711;28;20235;-66
2021/11/22 13:19:24;;;;;;;6.73;2.67;;;;;;;;;;5091286;28;20714;-66
2021/11/22 13:21:55;;;;;;;6.07;2.47;;;;;;;;;;5091444;28;20239;-66
2021/11/22 13:24:23;;;;;;;6.27;2.73;;;;;;;;;;5091574;28;20292;-66
2021/11/22 13:26:50;;;;;;;4.83;2.87;;;;;;;;;;5105570;28;20274;-67
2021/11/22 13:29:18;;;;;;;4.47;2.50;;;;;;;;;;5111829;28;20203;-67
2021/11/22 13:31:48;;;;;;;3.80;2.47;;;;;;;;;;5111863;28;20229;-67
2021/11/22 13:34:18;;;;;;;3.40;2.67;;;;;;;;;;5089817;28;20220;-67
2021/11/22 13:36:54;;;;;;;8.73;2.80;;;;;;;;;;5091605;28;20225;-66
2021/11/22 13:39:25;;;;;;;6.00;3.20;;;;;;;;;;5090427;28;20204;-68
2021/11/22 13:42:00;;;;;;;6.17;2.83;;;;;;;;;;5091580;28;20277;-69
2021/11/22 13:44:27;;;;;;;4.70;2.83;;;;;;;;;;5091234;28;20287;-68
2021/11/22 13:46:55;;;;;;;4.63;2.70;;;;;;;;;;5090718;28;20659;-67
2021/11/22 13:49:22;;;;;;;6.23;2.80;;;;;;;;;;5091382;28;20624;-67
2021/11/22 13:51:55;;;;;;;4.90;3.20;;;;;;;;;;5091502;28;20204;-68
2021/11/22 13:54:23;;;;;;;7.80;3.57;;;;;;;;;;5091005;28;20684;-67
2021/11/22 13:56:58;;;;;;;6.47;2.67;;;;;;;;;;5088728;28;20226;-67
2021/11/22 13:59:27;;;;;;;4.53;2.97;;;;;;;;;;5093088;28;20283;-69
2021/11/22 14:01:56;;;;;;;3.70;2.60;;;;;;;;;;5091101;28;20208;-67
2021/11/22 14:04:23;;;;;;;5.73;2.83;;;;;;;;;;5091145;28;20223;-67
2021/11/22 14:06:50;;;;;;;5.73;3.20;;;;;;;;;;5089275;28;20626;-69
2021/11/22 14:09:23;;;;;;;4.47;2.50;;;;;;;;;;5091780;28;20287;-67
2021/11/22 14:11:51;;;;;;;4.73;2.57;;;;;;;;;;5091417;28;20505;-67
2021/11/22 14:14:19;;;;;;;5.90;2.70;;;;;;;;;;5090981;28;20244;-67
2021/11/22 14:16:51;;;;;;;5.10;2.40;;;;;;;;;;5091438;28;20225;-67
2021/11/22 14:19:18;;;;;;;6.60;2.73;;;;;;;;;;5091246;28;20208;-67
2021/11/22 14:21:45;;;;;;;11.07;2.60;;;;;;;;;;5091197;28;20200;-67
2021/11/22 14:24:19;;;;;;;4.27;2.30;;;;;;;;;;5091114;28;20606;-67
2021/11/22 14:26:47;;;;;;;3.43;2.30;;;;;;;;;;5104835;28;20230;-68
2021/11/22 14:29:15;;;;;;;3.93;2.33;;;;;;;;;;5110298;28;20206;-67
2021/11/22 14:31:43;;;;;;;2.60;1.47;;;;;;;;;;5111659;28;20214;-68
2021/11/22 14:34:14;;;;;;;6.00;2.17;;;;;;;;;;5111864;28;20211;-68
2021/11/22 14:36:42;;;;;;;3.00;1.70;;;;;;;;;;5110297;28;20235;-69
2021/11/22 14:39:10;;;;;;;2.53;2.07;;;;;;;;;;5111499;28;20210;-68
2021/11/22 14:41:43;;;;;;;3.83;1.77;;;;;;;;;;5111714;28;20244;-68
2021/11/22 14:44:10;;;;;;;2.43;1.70;;;;;;;;;;5115028;28;20731;-66
2021/11/22 14:46:38;;;;;;;1.80;1.37;;;;;;;;;;5112899;28;20269;-67
2021/11/22 14:49:26;;;;;;;2.43;1.87;;;;;;;;;;5094583;28;20669;-67
2021/11/22 14:51:54;;;;;;;3.37;2.13;;;;;;;;;;5094297;28;20752;-66
2021/11/22 14:54:25;;;;;;;3.03;2.00;;;;;;;;;;5094269;28;20248;-66
2021/11/22 14:56:56;;;;;;;3.30;2.00;;;;;;;;;;5093329;28;20231;-67
2021/11/22 14:59:31;;;;;;;2.47;1.60;;;;;;;;;;5094587;28;20198;-67
2021/11/22 15:01:59;;;;;;;1.97;1.50;;;;;;;;;;5093610;28;20200;-67
2021/11/22 15:04:27;;;;;;;3.10;1.87;;;;;;;;;;5093509;28;20215;-65
2021/11/22 15:06:56;;;;;;;4.87;1.80;;;;;;;;;;5094056;28;20228;-66
2021/11/22 15:09:23;;;;;;;2.47;1.70;;;;;;;;;;5094938;28;20700;-68
2021/11/22 15:11:52;;;;;;;4.67;1.60;;;;;;;;;;5081853;28;20262;-68
2021/11/22 15:14:23;;;;;;;1.60;1.40;;;;;;;;;;5085756;28;20212;-67
2021/11/22 15:16:52;;;;;;;3.60;1.60;;;;;;;;;;5089614;28;20888;-66
2021/11/22 15:19:21;;;;;;;2.10;1.70;;;;;;;;;;5090552;28;20262;-66